Lincoln Center, Massachusetts
Current Conditions -  °F | °C
As of 10:56 AM on Sunday 25 Jan 2015 (Local Time) from KBED Reporting Station
Broken Clouds Broken Clouds  
Wind Chill: 26°   Ceiling: 7000
Heat Index: 36°   Visibility: 10mi
Dew Point: 21°   Wind: 16mph
Humidity: 55%   Direction: 270°W
Pressure: 29.59"   Gusts: 23mph
Location:  42.4264°N, 71.3094°W
Report Text: KBED 251556Z 27014G20KT 10SM BKN070 02/M06 A2959 RMK AO2 SLP034 T00221061
Loading
Personal Weather Stations






























Interactive Weather Map New forecast layout! Learn more

10-Day Weather Forecast

Advertisements
Track Severe Weather on mobile